Time;durP1;ratioP1;P1;durP2;ratioP2;P2;SDS_P1;SDS_P2;PMS_P1;PMS_P2;Temp;Humidity;BMP_temperature;BMP_pressure;BME280_temperature;BME280_humidity;BME280_pressure;Samples;Min_cycle;Max_cycle;Signal;HPM_P1;HPM_P2
2020/12/06 00:00:28;;;;;;;11.53;8.63;;;5.2;99.9;;;;;;;;;
2020/12/06 00:01:02;;;;;;;11.53;8.63;;;5.2;99.9;;;;;;;;;
2020/12/06 00:02:02;;;;;;;10.53;8.57;;;5.2;99.9;;;;;;;;;
2020/12/06 00:02:41;;;;;;;10.07;8.27;;;5.2;99.9;;;;;;;;;
2020/12/06 00:03:02;;;;;;;10.07;8.27;;;5.2;99.9;;;;;;;;;
2020/12/06 00:03:16;;;;;;;10.07;8.27;;;5.2;99.9;;;;;;;;;
2020/12/06 00:04:02;;;;;;;10.3;8.9;;;5.2;99.9;;;;;;;;;
2020/12/06 00:04:18;;;;;;;10.3;8.9;;;5.2;99.9;;;;;;;;;
2020/12/06 00:04:54;;;;;;;11.97;8.4;;;5.1;99.9;;;;;;;;;
2020/12/06 00:05:02;;;;;;;11.97;8.4;;;5.1;99.9;;;;;;;;;
2020/12/06 00:05:14;;;;;;;11.97;8.4;;;5.1;99.9;;;;;;;;;
2020/12/06 00:05:30;;;;;;;10.13;9.13;;;5.1;99.9;;;;;;;;;
2020/12/06 00:06:04;;;;;;;10.13;9.13;;;5.1;99.9;;;;;;;;;
2020/12/06 00:06:16;;;;;;;10.13;9.13;;;5.1;99.9;;;;;;;;;
2020/12/06 00:06:31;;;;;;;11.17;8.77;;;5.1;99.9;;;;;;;;;
2020/12/06 00:07:02;;;;;;;11.17;8.77;;;5.1;99.9;;;;;;;;;
2020/12/06 00:07:07;;;;;;;11.17;8.77;;;5.1;99.9;;;;;;;;;
2020/12/06 00:07:17;;;;;;;11.17;8.77;;;5.1;99.9;;;;;;;;;
2020/12/06 00:07:27;;;;;;;11.17;8.77;;;5.1;99.9;;;;;;;;;
2020/12/06 00:07:43;;;;;;;11.03;8.97;;;5.1;99.9;;;;;;;;;
2020/12/06 00:08:02;;;;;;;11.03;8.97;;;5.1;99.9;;;;;;;;;
2020/12/06 00:08:18;;;;;;;11.03;8.97;;;5.1;99.9;;;;;;;;;
2020/12/06 00:08:31;;;;;;;10.53;8.9;;;5.1;99.9;;;;;;;;;
2020/12/06 00:08:44;;;;;;;10.53;8.9;;;5.1;99.9;;;;;;;;;
2020/12/06 00:09:02;;;;;;;10.53;8.9;;;5.1;99.9;;;;;;;;;
2020/12/06 00:09:15;;;;;;;10.53;8.9;;;5.1;99.9;;;;;;;;;
2020/12/06 00:09:30;;;;;;;10.63;9.53;;;5.1;99.9;;;;;;;;;
2020/12/06 00:09:40;;;;;;;10.63;9.53;;;5.1;99.9;;;;;;;;;
2020/12/06 00:09:56;;;;;;;10.63;9.53;;;5.1;99.9;;;;;;;;;
2020/12/06 00:10:01;;;;;;;10.63;9.53;;;5.1;99.9;;;;;;;;;
2020/12/06 00:10:17;;;;;;;10.63;9.53;;;5.1;99.9;;;;;;;;;
2020/12/06 00:10:32;;;;;;;10.67;9;;;5.1;99.9;;;;;;;;;
2020/12/06 00:10:42;;;;;;;10.67;9;;;5.1;99.9;;;;;;;;;
2020/12/06 00:10:57;;;;;;;10.67;9;;;5.1;99.9;;;;;;;;;
2020/12/06 00:11:01;;;;;;;10.67;9;;;5.1;99.9;;;;;;;;;
2020/12/06 00:11:18;;;;;;;10.67;9;;;5.1;99.9;;;;;;;;;
2020/12/06 00:11:28;;;;;;;10.67;9;;;5.1;99.9;;;;;;;;;
2020/12/06 00:11:43;;;;;;;10.53;9.3;;;5.1;99.9;;;;;;;;;
2020/12/06 00:11:54;;;;;;;10.53;9.3;;;5.1;99.9;;;;;;;;;
2020/12/06 00:12:02;;;;;;;10.53;9.3;;;5.1;99.9;;;;;;;;;
2020/12/06 00:12:09;;;;;;;10.53;9.3;;;5.1;99.9;;;;;;;;;
2020/12/06 00:12:14;;;;;;;10.53;9.3;;;5.1;99.9;;;;;;;;;
2020/12/06 00:12:30;;;;;;;10.87;8.83;;;5.2;99.9;;;;;;;;;
2020/12/06 00:12:46;;;;;;;10.87;8.83;;;5.2;99.9;;;;;;;;;
2020/12/06 00:12:55;;;;;;;10.87;8.83;;;5.2;99.9;;;;;;;;;
2020/12/06 00:13:01;;;;;;;10.87;8.83;;;5.2;99.9;;;;;;;;;
2020/12/06 00:13:10;;;;;;;10.87;8.83;;;5.2;99.9;;;;;;;;;
2020/12/06 00:13:15;;;;;;;10.87;8.83;;;5.2;99.9;;;;;;;;;
2020/12/06 00:13:31;;;;;;;10.43;8.67;;;5.2;99.9;;;;;;;;;
2020/12/06 00:13:41;;;;;;;10.43;8.67;;;5.2;99.9;;;;;;;;;
2020/12/06 00:13:56;;;;;;;10.43;8.67;;;5.2;99.9;;;;;;;;;
2020/12/06 00:14:01;;;;;;;10.43;8.67;;;5.2;99.9;;;;;;;;;
2020/12/06 00:14:07;;;;;;;10.43;8.67;;;5.2;99.9;;;;;;;;;
2020/12/06 00:14:17;;;;;;;10.43;8.67;;;5.2;99.9;;;;;;;;;
2020/12/06 00:14:27;;;;;;;10.43;8.67;;;5.2;99.9;;;;;;;;;
2020/12/06 00:14:48;;;;;;;11.3;8.7;;;5.2;99.9;;;;;;;;;
2020/12/06 00:14:58;;;;;;;11.3;8.7;;;5.2;99.9;;;;;;;;;
2020/12/06 00:15:02;;;;;;;11.3;8.7;;;5.2;99.9;;;;;;;;;
2020/12/06 00:15:08;;;;;;;11.3;8.7;;;5.2;99.9;;;;;;;;;
2020/12/06 00:15:13;;;;;;;11.3;8.7;;;5.2;99.9;;;;;;;;;
2020/12/06 00:15:28;;;;;;;11.3;8.7;;;5.2;99.9;;;;;;;;;
2020/12/06 00:15:44;;;;;;;10.33;9.13;;;5.2;99.9;;;;;;;;;
2020/12/06 00:15:54;;;;;;;10.33;9.13;;;5.2;99.9;;;;;;;;;
2020/12/06 00:16:02;;;;;;;10.33;9.13;;;5.2;99.9;;;;;;;;;
2020/12/06 00:16:09;;;;;;;10.33;9.13;;;5.2;99.9;;;;;;;;;
2020/12/06 00:16:15;;;;;;;10.33;9.13;;;5.2;99.9;;;;;;;;;
2020/12/06 00:16:30;;;;;;;10.33;9.13;;;5.2;99.9;;;;;;;;;
2020/12/06 00:16:40;;;;;;;12.37;8.67;;;5.2;99.9;;;;;;;;;
2020/12/06 00:17:01;;;;;;;12.37;8.67;;;5.2;99.9;;;;;;;;;
2020/12/06 00:17:01;;;;;;;12.37;8.67;;;5.2;99.9;;;;;;;;;
2020/12/06 00:17:11;;;;;;;12.37;8.67;;;5.2;99.9;;;;;;;;;
2020/12/06 00:17:16;;;;;;;12.37;8.67;;;5.2;99.9;;;;;;;;;
2020/12/06 00:17:29;;;;;;;12.37;8.67;;;5.2;99.9;;;;;;;;;
2020/12/06 00:17:42;;;;;;;10.63;8.97;;;5.2;99.9;;;;;;;;;
2020/12/06 00:17:57;;;;;;;10.63;8.97;;;5.2;99.9;;;;;;;;;
2020/12/06 00:18:02;;;;;;;10.63;8.97;;;5.2;99.9;;;;;;;;;
2020/12/06 00:18:07;;;;;;;10.63;8.97;;;5.2;99.9;;;;;;;;;
2020/12/06 00:18:12;;;;;;;10.63;8.97;;;5.2;99.9;;;;;;;;;
2020/12/06 00:18:28;;;;;;;10.63;8.97;;;5.2;99.9;;;;;;;;;
2020/12/06 00:18:43;;;;;;;11.4;9.4;;;5.2;99.9;;;;;;;;;
2020/12/06 00:18:53;;;;;;;11.4;9.4;;;5.2;99.9;;;;;;;;;
2020/12/06 00:19:02;;;;;;;11.4;9.4;;;5.2;99.9;;;;;;;;;
2020/12/06 00:19:14;;;;;;;11.4;9.4;;;5.2;99.9;;;;;;;;;
2020/12/06 00:19:14;;;;;;;11.4;9.4;;;5.2;99.9;;;;;;;;;
2020/12/06 00:19:29;;;;;;;11.4;9.4;;;5.2;99.9;;;;;;;;;
2020/12/06 00:19:39;;;;;;;11.87;9.13;;;5.1;99.9;;;;;;;;;
2020/12/06 00:19:55;;;;;;;11.87;9.13;;;5.1;99.9;;;;;;;;;
2020/12/06 00:20:02;;;;;;;11.87;9.13;;;5.1;99.9;;;;;;;;;
2020/12/06 00:20:10;;;;;;;11.87;9.13;;;5.1;99.9;;;;;;;;;
2020/12/06 00:20:15;;;;;;;11.87;9.13;;;5.1;99.9;;;;;;;;;
2020/12/06 00:20:26;;;;;;;11.87;9.13;;;5.1;99.9;;;;;;;;;
2020/12/06 00:20:41;;;;;;;10.97;8.6;;;5.1;99.9;;;;;;;;;
2020/12/06 00:20:56;;;;;;;10.97;8.6;;;5.1;99.9;;;;;;;;;
2020/12/06 00:21:02;;;;;;;10.97;8.6;;;5.1;99.9;;;;;;;;;
2020/12/06 00:21:06;;;;;;;10.97;8.6;;;5.1;99.9;;;;;;;;;
2020/12/06 00:21:17;;;;;;;10.97;8.6;;;5.1;99.9;;;;;;;;;
2020/12/06 00:21:27;;;;;;;10.97;8.6;;;5.1;99.9;;;;;;;;;
2020/12/06 00:21:42;;;;;;;10.73;8.47;;;5.1;99.9;;;;;;;;;
2020/12/06 00:21:52;;;;;;;10.73;8.47;;;5.1;99.9;;;;;;;;;
2020/12/06 00:22:02;;;;;;;10.73;8.47;;;5.1;99.9;;;;;;;;;
2020/12/06 00:22:08;;;;;;;10.73;8.47;;;5.1;99.9;;;;;;;;;
2020/12/06 00:22:13;;;;;;;10.73;8.47;;;5.1;99.9;;;;;;;;;
2020/12/06 00:22:28;;;;;;;10.73;8.47;;;5.1;99.9;;;;;;;;;
2020/12/06 00:22:39;;;;;;;10.5;9.23;;;5;99.9;;;;;;;;;
2020/12/06 00:22:54;;;;;;;10.5;9.23;;;5;99.9;;;;;;;;;
2020/12/06 00:23:02;;;;;;;10.5;9.23;;;5;99.9;;;;;;;;;
2020/12/06 00:23:10;;;;;;;10.5;9.23;;;5;99.9;;;;;;;;;
2020/12/06 00:23:20;;;;;;;10.5;9.23;;;5;99.9;;;;;;;;;
2020/12/06 00:23:30;;;;;;;10.5;9.23;;;5;99.9;;;;;;;;;
2020/12/06 00:23:40;;;;;;;11.87;9.17;;;4.9;99.9;;;;;;;;;
2020/12/06 00:23:55;;;;;;;11.87;9.17;;;4.9;99.9;;;;;;;;;
2020/12/06 00:24:04;;;;;;;11.87;9.17;;;4.9;99.9;;;;;;;;;
2020/12/06 00:24:06;;;;;;;11.87;9.17;;;4.9;99.9;;;;;;;;;
2020/12/06 00:24:16;;;;;;;11.87;9.17;;;4.9;99.9;;;;;;;;;
2020/12/06 00:24:26;;;;;;;11.87;9.17;;;4.9;99.9;;;;;;;;;
2020/12/06 00:24:42;;;;;;;10.33;8.9;;;5;99.9;;;;;;;;;
2020/12/06 00:24:52;;;;;;;10.33;8.9;;;5;99.9;;;;;;;;;
2020/12/06 00:25:02;;;;;;;10.33;8.9;;;5;99.9;;;;;;;;;
2020/12/06 00:25:07;;;;;;;10.33;8.9;;;5;99.9;;;;;;;;;
2020/12/06 00:25:12;;;;;;;10.33;8.9;;;5;99.9;;;;;;;;;
2020/12/06 00:25:33;;;;;;;10.33;8.9;;;5;99.9;;;;;;;;;
2020/12/06 00:25:43;;;;;;;11.57;8.9;;;4.9;99.9;;;;;;;;;
2020/12/06 00:25:53;;;;;;;11.57;8.9;;;4.9;99.9;;;;;;;;;
2020/12/06 00:26:02;;;;;;;11.57;8.9;;;4.9;99.9;;;;;;;;;
2020/12/06 00:26:09;;;;;;;11.57;8.9;;;4.9;99.9;;;;;;;;;
2020/12/06 00:26:19;;;;;;;11.57;8.9;;;4.9;99.9;;;;;;;;;
2020/12/06 00:26:29;;;;;;;11.57;8.9;;;4.9;99.9;;;;;;;;;
2020/12/06 00:26:39;;;;;;;10.87;8.33;;;5;99.9;;;;;;;;;
2020/12/06 00:26:55;;;;;;;10.87;8.33;;;5;99.9;;;;;;;;;
2020/12/06 00:27:01;;;;;;;10.87;8.33;;;5;99.9;;;;;;;;;
2020/12/06 00:27:05;;;;;;;10.87;8.33;;;5;99.9;;;;;;;;;
2020/12/06 00:27:15;;;;;;;10.87;8.33;;;5;99.9;;;;;;;;;
2020/12/06 00:27:25;;;;;;;10.87;8.33;;;5;99.9;;;;;;;;;
2020/12/06 00:27:46;;;;;;;10.33;8.3;;;5;99.9;;;;;;;;;
2020/12/06 00:27:56;;;;;;;10.33;8.3;;;5;99.9;;;;;;;;;
2020/12/06 00:28:02;;;;;;;10.33;8.3;;;5;99.9;;;;;;;;;
2020/12/06 00:28:06;;;;;;;10.33;8.3;;;5;99.9;;;;;;;;;
2020/12/06 00:28:17;;;;;;;10.33;8.3;;;5;99.9;;;;;;;;;
2020/12/06 00:28:32;;;;;;;10.33;8.3;;;5;99.9;;;;;;;;;
2020/12/06 00:28:42;;;;;;;11.73;8.9;;;5.1;99.9;;;;;;;;;
2020/12/06 00:28:52;;;;;;;11.73;8.9;;;5.1;99.9;;;;;;;;;
2020/12/06 00:29:02;;;;;;;11.73;8.9;;;5.1;99.9;;;;;;;;;
2020/12/06 00:29:08;;;;;;;11.73;8.9;;;5.1;99.9;;;;;;;;;
2020/12/06 00:29:13;;;;;;;11.73;8.9;;;5.1;99.9;;;;;;;;;
2020/12/06 00:29:28;;;;;;;11.73;8.9;;;5.1;99.9;;;;;;;;;
2020/12/06 00:29:39;;;;;;;12.2;9.43;;;5;99.9;;;;;;;;;
2020/12/06 00:29:59;;;;;;;12.2;9.43;;;5;99.9;;;;;;;;;
2020/12/06 00:30:02;;;;;;;12.2;9.43;;;5;99.9;;;;;;;;;
2020/12/06 00:30:09;;;;;;;12.2;9.43;;;5;99.9;;;;;;;;;
2020/12/06 00:30:14;;;;;;;12.2;9.43;;;5;99.9;;;;;;;;;
2020/12/06 00:30:30;;;;;;;12.2;9.43;;;5;99.9;;;;;;;;;
2020/12/06 00:30:45;;;;;;;10.17;8.57;;;5;99.9;;;;;;;;;
2020/12/06 00:30:55;;;;;;;10.17;8.57;;;5;99.9;;;;;;;;;
2020/12/06 00:31:02;;;;;;;10.17;8.57;;;5;99.9;;;;;;;;;
2020/12/06 00:31:05;;;;;;;10.17;8.57;;;5;99.9;;;;;;;;;
2020/12/06 00:31:16;;;;;;;10.17;8.57;;;5;99.9;;;;;;;;;
2020/12/06 00:31:26;;;;;;;10.17;8.57;;;5;99.9;;;;;;;;;
2020/12/06 00:31:41;;;;;;;11.37;8.4;;;5;99.9;;;;;;;;;
2020/12/06 00:31:52;;;;;;;11.37;8.4;;;5;99.9;;;;;;;;;
2020/12/06 00:32:01;;;;;;;11.37;8.4;;;5;99.9;;;;;;;;;
2020/12/06 00:32:14;;;;;;;11.37;8.4;;;5;99.9;;;;;;;;;
2020/12/06 00:32:17;;;;;;;11.37;8.4;;;5;99.9;;;;;;;;;
2020/12/06 00:32:27;;;;;;;11.37;8.4;;;5;99.9;;;;;;;;;
2020/12/06 00:32:43;;;;;;;11.6;8.87;;;5;99.9;;;;;;;;;
2020/12/06 00:32:58;;;;;;;11.6;8.87;;;5;99.9;;;;;;;;;
2020/12/06 00:33:02;;;;;;;11.6;8.87;;;5;99.9;;;;;;;;;
2020/12/06 00:33:08;;;;;;;11.6;8.87;;;5;99.9;;;;;;;;;
2020/12/06 00:33:14;;;;;;;11.6;8.87;;;5;99.9;;;;;;;;;
2020/12/06 00:33:29;;;;;;;11.6;8.87;;;5;99.9;;;;;;;;;
2020/12/06 00:33:39;;;;;;;10.27;8.67;;;4.9;99.9;;;;;;;;;
2020/12/06 00:33:54;;;;;;;10.27;8.67;;;4.9;99.9;;;;;;;;;
2020/12/06 00:34:02;;;;;;;10.27;8.67;;;4.9;99.9;;;;;;;;;
2020/12/06 00:34:05;;;;;;;10.27;8.67;;;4.9;99.9;;;;;;;;;
2020/12/06 00:34:15;;;;;;;10.27;8.67;;;4.9;99.9;;;;;;;;;
2020/12/06 00:34:30;;;;;;;10.27;8.67;;;4.9;99.9;;;;;;;;;
2020/12/06 00:34:41;;;;;;;10.8;8.57;;;5;99.9;;;;;;;;;
2020/12/06 00:34:56;;;;;;;10.8;8.57;;;5;99.9;;;;;;;;;
2020/12/06 00:35:02;;;;;;;10.8;8.57;;;5;99.9;;;;;;;;;
2020/12/06 00:35:11;;;;;;;10.8;8.57;;;5;99.9;;;;;;;;;
2020/12/06 00:35:16;;;;;;;10.8;8.57;;;5;99.9;;;;;;;;;
2020/12/06 00:35:27;;;;;;;10.8;8.57;;;5;99.9;;;;;;;;;
2020/12/06 00:35:42;;;;;;;10.67;9.17;;;5;99.9;;;;;;;;;
2020/12/06 00:35:52;;;;;;;10.67;9.17;;;5;99.9;;;;;;;;;
2020/12/06 00:36:02;;;;;;;10.67;9.17;;;5;99.9;;;;;;;;;
2020/12/06 00:36:08;;;;;;;10.67;9.17;;;5;99.9;;;;;;;;;
2020/12/06 00:36:13;;;;;;;10.67;9.17;;;5;99.9;;;;;;;;;
2020/12/06 00:36:28;;;;;;;10.67;9.17;;;5;99.9;;;;;;;;;
2020/12/06 00:36:44;;;;;;;12.43;9.87;;;5;99.9;;;;;;;;;
2020/12/06 00:36:54;;;;;;;12.43;9.87;;;5;99.9;;;;;;;;;
2020/12/06 00:37:01;;;;;;;12.43;9.87;;;5;99.9;;;;;;;;;
2020/12/06 00:37:09;;;;;;;12.43;9.87;;;5;99.9;;;;;;;;;
2020/12/06 00:37:22;;;;;;;12.43;9.87;;;5;99.9;;;;;;;;;
2020/12/06 00:37:29;;;;;;;12.43;9.87;;;5;99.9;;;;;;;;;
2020/12/06 00:37:40;;;;;;;11.27;9.2;;;5;99.9;;;;;;;;;
2020/12/06 00:37:55;;;;;;;11.27;9.2;;;5;99.9;;;;;;;;;
2020/12/06 00:38:02;;;;;;;11.27;9.2;;;5;99.9;;;;;;;;;
2020/12/06 00:38:05;;;;;;;11.27;9.2;;;5;99.9;;;;;;;;;
2020/12/06 00:38:16;;;;;;;11.27;9.2;;;5;99.9;;;;;;;;;
2020/12/06 00:38:26;;;;;;;11.27;9.2;;;5;99.9;;;;;;;;;
2020/12/06 00:38:41;;;;;;;12.07;9.6;;;5;99.9;;;;;;;;;
2020/12/06 00:39:01;;;;;;;12.07;9.6;;;5;99.9;;;;;;;;;
2020/12/06 00:39:02;;;;;;;12.07;9.6;;;5;99.9;;;;;;;;;
2020/12/06 00:39:07;;;;;;;12.07;9.6;;;5;99.9;;;;;;;;;
2020/12/06 00:39:12;;;;;;;12.07;9.6;;;5;99.9;;;;;;;;;
2020/12/06 00:39:32;;;;;;;12.07;9.6;;;5;99.9;;;;;;;;;
2020/12/06 00:39:43;;;;;;;11.87;9.77;;;5.1;99.9;;;;;;;;;
2020/12/06 00:39:53;;;;;;;11.87;9.77;;;5.1;99.9;;;;;;;;;
2020/12/06 00:40:02;;;;;;;11.87;9.77;;;5.1;99.9;;;;;;;;;
2020/12/06 00:40:08;;;;;;;11.87;9.77;;;5.1;99.9;;;;;;;;;
2020/12/06 00:40:13;;;;;;;11.87;9.77;;;5.1;99.9;;;;;;;;;
2020/12/06 00:40:29;;;;;;;11.87;9.77;;;5.1;99.9;;;;;;;;;
2020/12/06 00:40:39;;;;;;;12.93;9.6;;;5.1;99.9;;;;;;;;;
2020/12/06 00:40:54;;;;;;;12.93;9.6;;;5.1;99.9;;;;;;;;;
2020/12/06 00:41:02;;;;;;;12.93;9.6;;;5.1;99.9;;;;;;;;;
2020/12/06 00:41:15;;;;;;;12.93;9.6;;;5.1;99.9;;;;;;;;;
2020/12/06 00:41:15;;;;;;;12.93;9.6;;;5.1;99.9;;;;;;;;;
2020/12/06 00:41:25;;;;;;;12.93;9.6;;;5.1;99.9;;;;;;;;;
2020/12/06 00:41:45;;;;;;;11.77;8.8;;;5.2;99.9;;;;;;;;;
2020/12/06 00:41:56;;;;;;;11.77;8.8;;;5.2;99.9;;;;;;;;;
2020/12/06 00:42:01;;;;;;;11.77;8.8;;;5.2;99.9;;;;;;;;;
2020/12/06 00:42:06;;;;;;;11.77;8.8;;;5.2;99.9;;;;;;;;;
2020/12/06 00:42:16;;;;;;;11.77;8.8;;;5.2;99.9;;;;;;;;;
2020/12/06 00:42:26;;;;;;;11.77;8.8;;;5.2;99.9;;;;;;;;;
2020/12/06 00:42:42;;;;;;;11.33;9.07;;;5.2;99.9;;;;;;;;;
2020/12/06 00:42:52;;;;;;;11.33;9.07;;;5.2;99.9;;;;;;;;;
2020/12/06 00:43:02;;;;;;;11.33;9.07;;;5.2;99.9;;;;;;;;;
2020/12/06 00:43:07;;;;;;;11.33;9.07;;;5.2;99.9;;;;;;;;;
2020/12/06 00:43:12;;;;;;;11.33;9.07;;;5.2;99.9;;;;;;;;;
2020/12/06 00:43:28;;;;;;;11.33;9.07;;;5.2;99.9;;;;;;;;;
2020/12/06 00:43:38;;;;;;;11.33;9.07;;;5.2;99.9;;;;;;;;;
2020/12/06 00:43:59;;;;;;;11.5;9.43;;;5.2;99.9;;;;;;;;;
2020/12/06 00:44:01;;;;;;;11.5;9.43;;;5.2;99.9;;;;;;;;;
2020/12/06 00:44:11;;;;;;;11.5;9.43;;;5.2;99.9;;;;;;;;;
2020/12/06 00:44:14;;;;;;;11.5;9.43;;;5.2;99.9;;;;;;;;;
2020/12/06 00:44:29;;;;;;;11.5;9.43;;;5.2;99.9;;;;;;;;;
2020/12/06 00:44:40;;;;;;;12;9.6;;;5.1;99.9;;;;;;;;;
2020/12/06 00:44:55;;;;;;;12;9.6;;;5.1;99.9;;;;;;;;;
2020/12/06 00:45:02;;;;;;;12;9.6;;;5.1;99.9;;;;;;;;;
2020/12/06 00:45:05;;;;;;;12;9.6;;;5.1;99.9;;;;;;;;;
2020/12/06 00:45:15;;;;;;;12;9.6;;;5.1;99.9;;;;;;;;;
2020/12/06 00:45:26;;;;;;;12;9.6;;;5.1;99.9;;;;;;;;;
2020/12/06 00:45:41;;;;;;;13.6;10.23;;;5.1;99.9;;;;;;;;;
2020/12/06 00:45:51;;;;;;;13.6;10.23;;;5.1;99.9;;;;;;;;;
2020/12/06 00:46:02;;;;;;;13.6;10.23;;;5.1;99.9;;;;;;;;;
2020/12/06 00:46:12;;;;;;;13.6;10.23;;;5.1;99.9;;;;;;;;;
2020/12/06 00:46:12;;;;;;;13.6;10.23;;;5.1;99.9;;;;;;;;;
2020/12/06 00:46:27;;;;;;;13.6;10.23;;;5.1;99.9;;;;;;;;;
2020/12/06 00:46:43;;;;;;;12.8;9.6;;;5.1;99.9;;;;;;;;;
2020/12/06 00:46:53;;;;;;;12.8;9.6;;;5.1;99.9;;;;;;;;;
2020/12/06 00:47:01;;;;;;;12.8;9.6;;;5.1;99.9;;;;;;;;;
2020/12/06 00:47:08;;;;;;;12.8;9.6;;;5.1;99.9;;;;;;;;;
2020/12/06 00:47:13;;;;;;;12.8;9.6;;;5.1;99.9;;;;;;;;;
2020/12/06 00:47:28;;;;;;;12.8;9.6;;;5.1;99.9;;;;;;;;;
2020/12/06 00:47:39;;;;;;;12.8;9.6;;;5.1;99.9;;;;;;;;;
2020/12/06 00:47:54;;;;;;;12.1;9.27;;;5;99.9;;;;;;;;;
2020/12/06 00:48:02;;;;;;;12.1;9.27;;;5;99.9;;;;;;;;;
2020/12/06 00:48:04;;;;;;;12.1;9.27;;;5;99.9;;;;;;;;;
2020/12/06 00:48:15;;;;;;;12.1;9.27;;;5;99.9;;;;;;;;;
2020/12/06 00:48:30;;;;;;;12.1;9.27;;;5;99.9;;;;;;;;;
2020/12/06 00:48:40;;;;;;;11.83;10.23;;;5;99.9;;;;;;;;;
2020/12/06 00:48:55;;;;;;;11.83;10.23;;;5;99.9;;;;;;;;;
2020/12/06 00:49:01;;;;;;;11.83;10.23;;;5;99.9;;;;;;;;;
2020/12/06 00:49:11;;;;;;;11.83;10.23;;;5;99.9;;;;;;;;;
2020/12/06 00:49:16;;;;;;;11.83;10.23;;;5;99.9;;;;;;;;;
2020/12/06 00:49:26;;;;;;;11.83;10.23;;;5;99.9;;;;;;;;;
2020/12/06 00:49:42;;;;;;;13.6;11.13;;;4.9;99.9;;;;;;;;;
2020/12/06 00:49:52;;;;;;;13.6;11.13;;;4.9;99.9;;;;;;;;;
2020/12/06 00:50:02;;;;;;;13.6;11.13;;;4.9;99.9;;;;;;;;;
2020/12/06 00:50:07;;;;;;;13.6;11.13;;;4.9;99.9;;;;;;;;;
2020/12/06 00:50:13;;;;;;;13.6;11.13;;;4.9;99.9;;;;;;;;;
2020/12/06 00:50:28;;;;;;;13.6;11.13;;;4.9;99.9;;;;;;;;;
2020/12/06 00:50:43;;;;;;;12.63;9.33;;;4.9;99.9;;;;;;;;;
2020/12/06 00:50:53;;;;;;;12.63;9.33;;;4.9;99.9;;;;;;;;;
2020/12/06 00:51:02;;;;;;;12.63;9.33;;;4.9;99.9;;;;;;;;;
2020/12/06 00:51:09;;;;;;;12.63;9.33;;;4.9;99.9;;;;;;;;;
2020/12/06 00:51:16;;;;;;;12.63;9.33;;;4.9;99.9;;;;;;;;;
2020/12/06 00:51:29;;;;;;;12.63;9.33;;;4.9;99.9;;;;;;;;;
2020/12/06 00:51:39;;;;;;;12.63;9.33;;;4.9;99.9;;;;;;;;;
2020/12/06 00:51:55;;;;;;;15.5;9.93;;;4.9;99.9;;;;;;;;;
2020/12/06 00:52:02;;;;;;;15.5;9.93;;;4.9;99.9;;;;;;;;;
2020/12/06 00:52:05;;;;;;;15.5;9.93;;;4.9;99.9;;;;;;;;;
2020/12/06 00:52:15;;;;;;;15.5;9.93;;;4.9;99.9;;;;;;;;;
2020/12/06 00:52:25;;;;;;;15.5;9.93;;;4.9;99.9;;;;;;;;;
2020/12/06 00:52:41;;;;;;;15.5;9.93;;;4.9;99.9;;;;;;;;;
2020/12/06 00:52:56;;;;;;;13.87;11.1;;;4.9;99.9;;;;;;;;;
2020/12/06 00:53:02;;;;;;;13.87;11.1;;;4.9;99.9;;;;;;;;;
2020/12/06 00:53:06;;;;;;;13.87;11.1;;;4.9;99.9;;;;;;;;;
2020/12/06 00:53:17;;;;;;;13.87;11.1;;;4.9;99.9;;;;;;;;;
2020/12/06 00:53:27;;;;;;;13.87;11.1;;;4.9;99.9;;;;;;;;;
2020/12/06 00:53:42;;;;;;;12.7;11.23;;;5;99.9;;;;;;;;;
2020/12/06 00:53:52;;;;;;;12.7;11.23;;;5;99.9;;;;;;;;;
2020/12/06 00:54:02;;;;;;;12.7;11.23;;;5;99.9;;;;;;;;;
2020/12/06 00:54:08;;;;;;;12.7;11.23;;;5;99.9;;;;;;;;;
2020/12/06 00:54:13;;;;;;;12.7;11.23;;;5;99.9;;;;;;;;;
2020/12/06 00:54:28;;;;;;;12.7;11.23;;;5;99.9;;;;;;;;;
2020/12/06 00:54:39;;;;;;;12.7;11.23;;;5;99.9;;;;;;;;;
2020/12/06 00:54:54;;;;;;;12.97;10.73;;;4.9;99.9;;;;;;;;;
2020/12/06 00:55:02;;;;;;;12.97;10.73;;;4.9;99.9;;;;;;;;;
2020/12/06 00:55:09;;;;;;;12.97;10.73;;;4.9;99.9;;;;;;;;;
2020/12/06 00:55:14;;;;;;;12.97;10.73;;;4.9;99.9;;;;;;;;;
2020/12/06 00:55:30;;;;;;;12.97;10.73;;;4.9;99.9;;;;;;;;;
2020/12/06 00:55:40;;;;;;;12.97;10.73;;;4.9;99.9;;;;;;;;;
2020/12/06 00:55:55;;;;;;;13.67;11.43;;;4.9;99.9;;;;;;;;;
2020/12/06 00:56:02;;;;;;;13.67;11.43;;;4.9;99.9;;;;;;;;;
2020/12/06 00:56:06;;;;;;;13.67;11.43;;;4.9;99.9;;;;;;;;;
2020/12/06 00:56:16;;;;;;;13.67;11.43;;;4.9;99.9;;;;;;;;;
2020/12/06 00:56:26;;;;;;;13.67;11.43;;;4.9;99.9;;;;;;;;;
2020/12/06 00:56:41;;;;;;;13.67;11.43;;;4.9;99.9;;;;;;;;;
2020/12/06 00:56:52;;;;;;;12.4;10.5;;;4.9;99.9;;;;;;;;;
2020/12/06 00:57:02;;;;;;;12.4;10.5;;;4.9;99.9;;;;;;;;;
2020/12/06 00:57:07;;;;;;;12.4;10.5;;;4.9;99.9;;;;;;;;;
2020/12/06 00:57:12;;;;;;;12.4;10.5;;;4.9;99.9;;;;;;;;;
2020/12/06 00:57:28;;;;;;;12.4;10.5;;;4.9;99.9;;;;;;;;;
2020/12/06 00:57:43;;;;;;;12.7;10.63;;;4.8;99.9;;;;;;;;;
2020/12/06 00:57:53;;;;;;;12.7;10.63;;;4.8;99.9;;;;;;;;;
2020/12/06 00:58:02;;;;;;;12.7;10.63;;;4.8;99.9;;;;;;;;;
2020/12/06 00:58:09;;;;;;;12.7;10.63;;;4.8;99.9;;;;;;;;;
2020/12/06 00:58:14;;;;;;;12.7;10.63;;;4.8;99.9;;;;;;;;;
2020/12/06 00:58:29;;;;;;;12.7;10.63;;;4.8;99.9;;;;;;;;;
2020/12/06 00:58:39;;;;;;;12.7;10.63;;;4.8;99.9;;;;;;;;;
2020/12/06 00:58:55;;;;;;;12.67;10.1;;;4.8;99.9;;;;;;;;;
2020/12/06 00:59:01;;;;;;;12.67;10.1;;;4.8;99.9;;;;;;;;;
2020/12/06 00:59:05;;;;;;;12.67;10.1;;;4.8;99.9;;;;;;;;;
2020/12/06 00:59:15;;;;;;;12.67;10.1;;;4.8;99.9;;;;;;;;;
2020/12/06 00:59:25;;;;;;;12.67;10.1;;;4.8;99.9;;;;;;;;;
2020/12/06 00:59:41;;;;;;;12.67;10.1;;;4.8;99.9;;;;;;;;;
2020/12/06 00:59:56;;;;;;;11.67;10.03;;;4.8;99.9;;;;;;;;;
2020/12/06 01:00:02;;;;;;;11.67;10.03;;;4.8;99.9;;;;;;;;;
2020/12/06 01:00:06;;;;;;;11.67;10.03;;;4.8;99.9;;;;;;;;;
2020/12/06 01:00:17;;;;;;;11.67;10.03;;;4.8;99.9;;;;;;;;;
2020/12/06 01:00:27;;;;;;;11.67;10.03;;;4.8;99.9;;;;;;;;;
2020/12/06 01:00:42;;;;;;;11.67;10.03;;;4.8;99.9;;;;;;;;;
2020/12/06 01:00:52;;;;;;;12.27;10.97;;;4.7;99.9;;;;;;;;;
2020/12/06 01:01:02;;;;;;;12.27;10.97;;;4.7;99.9;;;;;;;;;
2020/12/06 01:01:08;;;;;;;12.27;10.97;;;4.7;99.9;;;;;;;;;
2020/12/06 01:01:13;;;;;;;12.27;10.97;;;4.7;99.9;;;;;;;;;
2020/12/06 01:01:28;;;;;;;12.27;10.97;;;4.7;99.9;;;;;;;;;
2020/12/06 01:01:38;;;;;;;12.27;10.97;;;4.7;99.9;;;;;;;;;
2020/12/06 01:01:54;;;;;;;13.73;10.67;;;4.7;99.9;;;;;;;;;
2020/12/06 01:02:04;;;;;;;13.73;10.67;;;4.7;99.9;;;;;;;;;
2020/12/06 01:02:09;;;;;;;13.73;10.67;;;4.7;99.9;;;;;;;;;
2020/12/06 01:02:16;;;;;;;13.73;10.67;;;4.7;99.9;;;;;;;;;
2020/12/06 01:02:30;;;;;;;13.73;10.67;;;4.7;99.9;;;;;;;;;
2020/12/06 01:02:40;;;;;;;13.73;10.67;;;4.7;99.9;;;;;;;;;
2020/12/06 01:02:55;;;;;;;13.27;10.7;;;4.7;99.9;;;;;;;;;
2020/12/06 01:03:02;;;;;;;13.27;10.7;;;4.7;99.9;;;;;;;;;
2020/12/06 01:03:05;;;;;;;13.27;10.7;;;4.7;99.9;;;;;;;;;
2020/12/06 01:03:16;;;;;;;13.27;10.7;;;4.7;99.9;;;;;;;;;
2020/12/06 01:03:26;;;;;;;13.27;10.7;;;4.7;99.9;;;;;;;;;
2020/12/06 01:03:41;;;;;;;13.27;10.7;;;4.7;99.9;;;;;;;;;
2020/12/06 01:03:52;;;;;;;13.93;10.73;;;4.8;99.9;;;;;;;;;
2020/12/06 01:04:01;;;;;;;13.93;10.73;;;4.8;99.9;;;;;;;;;
2020/12/06 01:04:07;;;;;;;13.93;10.73;;;4.8;99.9;;;;;;;;;
2020/12/06 01:04:17;;;;;;;13.93;10.73;;;4.8;99.9;;;;;;;;;
2020/12/06 01:04:28;;;;;;;13.93;10.73;;;4.8;99.9;;;;;;;;;
2020/12/06 01:04:43;;;;;;;13.93;10.73;;;4.8;99.9;;;;;;;;;
2020/12/06 01:04:54;;;;;;;12.53;10.03;;;4.8;99.9;;;;;;;;;
2020/12/06 01:05:02;;;;;;;12.53;10.03;;;4.8;99.9;;;;;;;;;
2020/12/06 01:05:08;;;;;;;12.53;10.03;;;4.8;99.9;;;;;;;;;
2020/12/06 01:05:13;;;;;;;12.53;10.03;;;4.8;99.9;;;;;;;;;
2020/12/06 01:05:29;;;;;;;12.53;10.03;;;4.8;99.9;;;;;;;;;
2020/12/06 01:05:39;;;;;;;12.53;10.03;;;4.8;99.9;;;;;;;;;
2020/12/06 01:05:54;;;;;;;13.6;10.7;;;4.9;99.9;;;;;;;;;
2020/12/06 01:06:02;;;;;;;13.6;10.7;;;4.9;99.9;;;;;;;;;
2020/12/06 01:06:05;;;;;;;13.6;10.7;;;4.9;99.9;;;;;;;;;
2020/12/06 01:06:15;;;;;;;13.6;10.7;;;4.9;99.9;;;;;;;;;
2020/12/06 01:06:30;;;;;;;13.6;10.7;;;4.9;99.9;;;;;;;;;
2020/12/06 01:06:40;;;;;;;13.6;10.7;;;4.9;99.9;;;;;;;;;
2020/12/06 01:06:56;;;;;;;14.33;10.73;;;4.9;99.9;;;;;;;;;
2020/12/06 01:07:02;;;;;;;14.33;10.73;;;4.9;99.9;;;;;;;;;
2020/12/06 01:07:06;;;;;;;14.33;10.73;;;4.9;99.9;;;;;;;;;
2020/12/06 01:07:16;;;;;;;14.33;10.73;;;4.9;99.9;;;;;;;;;
2020/12/06 01:07:27;;;;;;;14.33;10.73;;;4.9;99.9;;;;;;;;;
2020/12/06 01:07:42;;;;;;;14.33;10.73;;;4.9;99.9;;;;;;;;;
2020/12/06 01:07:52;;;;;;;12.83;10.57;;;4.9;99.9;;;;;;;;;
2020/12/06 01:08:02;;;;;;;12.83;10.57;;;4.9;99.9;;;;;;;;;
2020/12/06 01:08:08;;;;;;;12.83;10.57;;;4.9;99.9;;;;;;;;;
2020/12/06 01:08:13;;;;;;;12.83;10.57;;;4.9;99.9;;;;;;;;;
2020/12/06 01:08:28;;;;;;;12.83;10.57;;;4.9;99.9;;;;;;;;;
2020/12/06 01:08:43;;;;;;;12.83;10.57;;;4.9;99.9;;;;;;;;;
2020/12/06 01:08:54;;;;;;;14.9;11.03;;;4.8;99.9;;;;;;;;;
2020/12/06 01:09:01;;;;;;;14.9;11.03;;;4.8;99.9;;;;;;;;;
2020/12/06 01:09:09;;;;;;;14.9;11.03;;;4.8;99.9;;;;;;;;;
2020/12/06 01:09:14;;;;;;;14.9;11.03;;;4.8;99.9;;;;;;;;;
2020/12/06 01:09:29;;;;;;;14.9;11.03;;;4.8;99.9;;;;;;;;;
2020/12/06 01:09:40;;;;;;;14.9;11.03;;;4.8;99.9;;;;;;;;;
2020/12/06 01:09:55;;;;;;;11.8;10.37;;;4.8;99.9;;;;;;;;;
2020/12/06 01:10:04;;;;;;;11.8;10.37;;;4.8;99.9;;;;;;;;;
2020/12/06 01:10:05;;;;;;;11.8;10.37;;;4.8;99.9;;;;;;;;;
2020/12/06 01:10:16;;;;;;;11.8;10.37;;;4.8;99.9;;;;;;;;;
2020/12/06 01:10:26;;;;;;;11.8;10.37;;;4.8;99.9;;;;;;;;;
2020/12/06 01:10:41;;;;;;;11.8;10.37;;;4.8;99.9;;;;;;;;;
2020/12/06 01:10:56;;;;;;;13.53;11.03;;;4.7;99.9;;;;;;;;;
2020/12/06 01:11:01;;;;;;;13.53;11.03;;;4.7;99.9;;;;;;;;;
2020/12/06 01:11:07;;;;;;;13.53;11.03;;;4.7;99.9;;;;;;;;;
2020/12/06 01:11:12;;;;;;;13.53;11.03;;;4.7;99.9;;;;;;;;;
2020/12/06 01:11:27;;;;;;;13.53;11.03;;;4.7;99.9;;;;;;;;;
2020/12/06 01:11:43;;;;;;;13.53;11.03;;;4.7;99.9;;;;;;;;;
2020/12/06 01:11:54;;;;;;;12.63;9.7;;;4.6;99.9;;;;;;;;;
2020/12/06 01:12:02;;;;;;;12.63;9.7;;;4.6;99.9;;;;;;;;;
2020/12/06 01:12:08;;;;;;;12.63;9.7;;;4.6;99.9;;;;;;;;;
2020/12/06 01:12:18;;;;;;;12.63;9.7;;;4.6;99.9;;;;;;;;;
2020/12/06 01:12:29;;;;;;;12.63;9.7;;;4.6;99.9;;;;;;;;;
2020/12/06 01:12:39;;;;;;;12.63;9.7;;;4.6;99.9;;;;;;;;;
2020/12/06 01:12:54;;;;;;;13.07;10.7;;;4.6;99.9;;;;;;;;;
2020/12/06 01:13:02;;;;;;;13.07;10.7;;;4.6;99.9;;;;;;;;;
2020/12/06 01:13:13;;;;;;;13.07;10.7;;;4.6;99.9;;;;;;;;;
2020/12/06 01:13:15;;;;;;;13.07;10.7;;;4.6;99.9;;;;;;;;;
2020/12/06 01:13:25;;;;;;;13.07;10.7;;;4.6;99.9;;;;;;;;;
2020/12/06 01:13:43;;;;;;;13.07;10.7;;;4.6;99.9;;;;;;;;;
2020/12/06 01:14:01;;;;;;;12.57;10.17;;;4.5;99.9;;;;;;;;;
2020/12/06 01:14:02;;;;;;;12.57;10.17;;;4.5;99.9;;;;;;;;;
2020/12/06 01:14:06;;;;;;;12.57;10.17;;;4.5;99.9;;;;;;;;;
2020/12/06 01:14:16;;;;;;;12.57;10.17;;;4.5;99.9;;;;;;;;;
2020/12/06 01:14:31;;;;;;;12.57;10.17;;;4.5;99.9;;;;;;;;;
2020/12/06 01:14:42;;;;;;;12.57;10.17;;;4.5;99.9;;;;;;;;;
2020/12/06 01:14:52;;;;;;;12.3;9.47;;;4.5;99.9;;;;;;;;;
2020/12/06 01:15:02;;;;;;;12.3;9.47;;;4.5;99.9;;;;;;;;;
2020/12/06 01:15:07;;;;;;;12.3;9.47;;;4.5;99.9;;;;;;;;;
2020/12/06 01:15:12;;;;;;;12.3;9.47;;;4.5;99.9;;;;;;;;;
2020/12/06 01:15:28;;;;;;;12.3;9.47;;;4.5;99.9;;;;;;;;;
2020/12/06 01:15:38;;;;;;;12.3;9.47;;;4.5;99.9;;;;;;;;;
2020/12/06 01:15:53;;;;;;;12.67;10.1;;;4.5;99.9;;;;;;;;;